createdAt,value
2018-09-28T00:01:23.049Z,11.20
2018-09-28T00:06:17.496Z,11.10
2018-09-28T00:11:12.289Z,11.10
2018-09-28T00:16:06.732Z,10.90
2018-09-28T00:21:01.192Z,10.80
2018-09-28T00:25:55.760Z,10.70
2018-09-28T00:30:50.348Z,10.70
2018-09-28T00:35:44.858Z,10.60
2018-09-28T00:40:39.497Z,10.50
2018-09-28T00:45:33.938Z,10.40
2018-09-28T00:50:28.500Z,10.40
2018-09-28T00:55:22.964Z,10.30
2018-09-28T01:00:18.320Z,10.30
2018-09-28T01:05:12.778Z,10.20
2018-09-28T01:10:07.429Z,10.20
2018-09-28T01:15:01.894Z,10.10
2018-09-28T01:19:56.338Z,10.10
2018-09-28T01:24:50.816Z,10.00
2018-09-28T01:29:45.299Z,10.00
2018-09-28T01:34:39.782Z,9.90
2018-09-28T01:39:34.243Z,9.80
2018-09-28T01:44:28.687Z,9.80
2018-09-28T01:49:23.608Z,9.70
2018-09-28T01:54:18.194Z,9.70
2018-09-28T01:59:12.653Z,9.70
2018-09-28T02:04:07.354Z,9.60
2018-09-28T02:09:01.948Z,9.50
2018-09-28T02:13:56.386Z,9.50
2018-09-28T02:18:50.847Z,9.50
2018-09-28T02:23:45.729Z,9.50
2018-09-28T02:28:40.693Z,9.40
2018-09-28T02:33:35.158Z,9.40
2018-09-28T02:38:29.611Z,9.40
2018-09-28T02:43:24.091Z,9.30
2018-09-28T02:48:18.518Z,9.20
2018-09-28T02:53:19.411Z,9.20
2018-09-28T02:58:13.859Z,9.10
2018-09-28T03:03:08.308Z,9.10
2018-09-28T03:08:02.755Z,9.10
2018-09-28T03:12:57.273Z,9.10
2018-09-28T03:17:54.146Z,9.00
2018-09-28T03:22:48.636Z,9.00
2018-09-28T03:27:43.083Z,9.00
2018-09-28T03:32:37.525Z,8.90
2018-09-28T03:37:32.195Z,8.90
2018-09-28T03:42:26.629Z,8.80
2018-09-28T03:47:21.084Z,8.80
2018-09-28T03:52:15.586Z,8.80
2018-09-28T03:57:10.034Z,8.80
2018-09-28T04:02:04.482Z,8.70
2018-09-28T04:06:58.927Z,8.70
2018-09-28T04:11:53.442Z,8.70
2018-09-28T04:16:48.047Z,8.70
2018-09-28T04:21:46.595Z,8.70
2018-09-28T04:26:41.547Z,8.60
2018-09-28T04:31:36.393Z,8.50
2018-09-28T04:36:30.880Z,8.50
2018-09-28T04:41:25.327Z,8.40
2018-09-28T04:46:19.755Z,8.40
2018-09-28T04:51:14.174Z,8.40
2018-09-28T04:56:08.652Z,8.30
2018-09-28T05:01:03.163Z,8.30
2018-09-28T05:05:57.954Z,8.30
2018-09-28T05:10:53.450Z,8.20
2018-09-28T05:15:48.364Z,8.30
2018-09-28T05:20:42.840Z,8.30
2018-09-28T05:25:37.414Z,8.40
2018-09-28T05:30:31.938Z,8.50
2018-09-28T05:35:26.515Z,8.50
2018-09-28T05:40:20.940Z,8.60
2018-09-28T05:45:15.420Z,8.60
2018-09-28T05:50:10.070Z,8.70
2018-09-28T05:55:04.880Z,8.80
2018-09-28T06:00:05.116Z,9.00
2018-09-28T06:05:05.082Z,9.30
2018-09-28T06:09:59.572Z,9.50
2018-09-28T06:14:54.476Z,9.90
2018-09-28T06:19:49.082Z,10.40
2018-09-28T06:24:43.494Z,11.10
2018-09-28T06:29:37.956Z,11.50
2018-09-28T06:34:32.516Z,11.80
2018-09-28T06:39:27.468Z,12.10
2018-09-28T06:44:21.912Z,12.20
2018-09-28T06:49:16.348Z,12.30
2018-09-28T06:54:11.024Z,12.30
2018-09-28T06:59:05.666Z,12.40
2018-09-28T07:04:00.400Z,12.50
2018-09-28T07:08:55.013Z,12.60
2018-09-28T07:13:49.695Z,12.50
2018-09-28T07:18:44.199Z,12.60
2018-09-28T07:23:39.042Z,12.70
2018-09-28T07:28:33.875Z,12.70
2018-09-28T07:33:28.358Z,12.70
2018-09-28T07:38:22.855Z,12.70
2018-09-28T07:43:17.344Z,12.60
2018-09-28T07:48:12.056Z,12.70
2018-09-28T07:53:07.149Z,12.60
2018-09-28T07:58:01.652Z,12.60
2018-09-28T08:02:56.161Z,12.40
2018-09-28T08:07:50.904Z,12.30
2018-09-28T08:12:45.710Z,12.30
2018-09-28T08:17:40.189Z,12.30
2018-09-28T08:22:34.695Z,12.10
2018-09-28T08:27:29.412Z,12.20
2018-09-28T08:32:23.942Z,12.20
2018-09-28T08:37:18.382Z,12.10
2018-09-28T08:42:12.863Z,12.10
2018-09-28T08:47:07.331Z,12.20
2018-09-28T08:52:01.858Z,12.20
2018-09-28T08:56:56.359Z,12.30
2018-09-28T09:01:51.095Z,12.40
2018-09-28T09:06:45.576Z,12.50
2018-09-28T09:11:40.058Z,12.60
2018-09-28T09:16:34.488Z,12.60
2018-09-28T09:21:29.031Z,12.70
2018-09-28T09:26:23.502Z,12.80
2018-09-28T09:31:18.028Z,12.90
2018-09-28T09:36:12.510Z,12.90
2018-09-28T09:41:07.415Z,12.90
2018-09-28T09:46:01.882Z,12.90
2018-09-28T09:50:56.414Z,13.10
2018-09-28T09:55:50.876Z,13.20
2018-09-28T10:00:51.846Z,13.30
2018-09-28T10:05:46.287Z,13.30
2018-09-28T10:10:40.722Z,13.40
2018-09-28T10:15:35.262Z,13.40
2018-09-28T10:20:29.726Z,13.50
2018-09-28T10:25:24.186Z,13.50
2018-09-28T10:30:18.626Z,13.50
2018-09-28T10:35:13.079Z,13.30
2018-09-28T10:40:07.618Z,13.30
2018-09-28T10:45:02.234Z,13.40
2018-09-28T10:49:56.734Z,13.40
2018-09-28T10:54:51.414Z,13.30
2018-09-28T10:59:45.906Z,13.30
2018-09-28T11:04:40.626Z,13.40
2018-09-28T11:09:35.311Z,13.40
2018-09-28T11:14:29.925Z,13.30
2018-09-28T11:19:24.398Z,13.30
2018-09-28T11:24:18.951Z,13.30
2018-09-28T11:29:13.573Z,13.30
2018-09-28T11:34:08.083Z,13.30
2018-09-28T11:39:02.818Z,13.10
2018-09-28T11:43:57.317Z,13.10
2018-09-28T11:48:51.954Z,13.20
2018-09-28T11:53:46.399Z,13.30
2018-09-28T11:58:41.072Z,13.40
2018-09-28T12:03:35.537Z,13.40
2018-09-28T12:08:30.258Z,13.40
2018-09-28T12:13:24.973Z,13.30
2018-09-28T12:18:19.687Z,13.30
2018-09-28T12:23:14.314Z,13.30
2018-09-28T12:28:08.935Z,13.40
2018-09-28T12:33:03.414Z,13.60
2018-09-28T12:37:58.436Z,13.70
2018-09-28T12:42:53.336Z,13.70
2018-09-28T12:47:48.278Z,14.00
2018-09-28T12:52:42.858Z,14.20
2018-09-28T12:57:37.336Z,14.50
2018-09-28T13:02:32.208Z,14.90
2018-09-28T13:07:26.975Z,14.90
2018-09-28T13:12:21.479Z,15.00
2018-09-28T13:17:16.143Z,14.90
2018-09-28T13:22:10.824Z,15.00
2018-09-28T13:27:05.374Z,14.90
2018-09-28T13:32:00.161Z,14.70
2018-09-28T13:36:54.928Z,14.80
2018-09-28T13:41:49.487Z,14.70
2018-09-28T13:46:44.002Z,14.80
2018-09-28T13:51:38.874Z,14.80
2018-09-28T13:56:33.356Z,14.80
2018-09-28T14:01:28.013Z,14.90
2018-09-28T14:06:23.154Z,14.90
2018-09-28T14:11:18.567Z,14.90
2018-09-28T14:16:13.056Z,15.10
2018-09-28T14:21:08.372Z,15.10
2018-09-28T14:26:02.843Z,15.20
2018-09-28T14:30:57.672Z,15.10
2018-09-28T14:35:52.150Z,15.00
2018-09-28T14:40:46.780Z,15.00
2018-09-28T14:45:41.630Z,15.50
2018-09-28T14:50:36.177Z,15.70
2018-09-28T14:55:30.936Z,15.90
2018-09-28T15:00:25.720Z,15.90
2018-09-28T15:05:20.288Z,15.80
2018-09-28T15:10:15.151Z,15.90
2018-09-28T15:15:11.567Z,16.00
2018-09-28T15:20:06.398Z,15.60
2018-09-28T15:25:01.381Z,15.50
2018-09-28T15:29:56.025Z,15.40
2018-09-28T15:34:50.528Z,15.40
2018-09-28T15:39:45.192Z,15.30
2018-09-28T15:44:39.734Z,15.20
2018-09-28T15:49:34.283Z,15.10
2018-09-28T15:54:28.792Z,14.90
2018-09-28T15:59:23.319Z,14.70
2018-09-28T16:04:17.931Z,14.70
2018-09-28T16:09:12.673Z,14.80
2018-09-28T16:14:07.221Z,14.60
2018-09-28T16:19:01.877Z,14.40
2018-09-28T16:23:56.406Z,14.30
2018-09-28T16:28:50.859Z,14.10
2018-09-28T16:33:45.622Z,14.00
2018-09-28T16:38:40.147Z,13.90
2018-09-28T16:43:34.629Z,13.80
2018-09-28T16:48:29.120Z,13.70
2018-09-28T16:53:23.803Z,13.70
2018-09-28T16:58:18.297Z,13.70
2018-09-28T17:03:12.916Z,13.70
2018-09-28T17:08:07.509Z,13.80
2018-09-28T17:13:02.063Z,13.70
2018-09-28T17:17:56.649Z,13.50
2018-09-28T17:22:51.232Z,13.30
2018-09-28T17:27:45.750Z,13.20
2018-09-28T17:32:40.333Z,13.10
2018-09-28T17:37:34.902Z,13.00
2018-09-28T17:42:29.415Z,12.90
2018-09-28T17:47:24.017Z,12.70
2018-09-28T17:52:18.544Z,12.60
2018-09-28T17:57:13.583Z,12.50
2018-09-28T18:02:08.111Z,12.40
2018-09-28T18:07:03.465Z,12.20
2018-09-28T18:11:57.944Z,12.10
2018-09-28T18:16:53.282Z,12.00
2018-09-28T18:21:47.726Z,11.80
2018-09-28T18:26:42.234Z,11.60
2018-09-28T18:31:36.802Z,11.40
2018-09-28T18:36:31.260Z,11.20
2018-09-28T18:41:25.739Z,11.10
2018-09-28T18:46:20.590Z,11.00
2018-09-28T18:51:15.330Z,10.80
2018-09-28T18:56:09.796Z,10.80
2018-09-28T19:01:04.386Z,10.70
2018-09-28T19:05:59.299Z,10.70
2018-09-28T19:10:54.014Z,10.70
2018-09-28T19:15:49.344Z,10.60
2018-09-28T19:20:45.270Z,10.60
2018-09-28T19:25:40.070Z,10.50
2018-09-28T19:30:36.264Z,10.40
2018-09-28T19:35:30.724Z,10.30
2018-09-28T19:40:25.456Z,10.30
2018-09-28T19:45:20.191Z,10.20
2018-09-28T19:50:14.691Z,10.20
2018-09-28T19:55:09.206Z,10.00
2018-09-28T20:00:04.061Z,9.90
2018-09-28T20:04:58.854Z,9.80
2018-09-28T20:09:53.709Z,9.70
2018-09-28T20:14:48.268Z,9.60
2018-09-28T20:19:42.891Z,9.50
2018-09-28T20:24:37.364Z,9.50
2018-09-28T20:29:31.822Z,9.40
2018-09-28T20:34:26.531Z,9.30
2018-09-28T20:39:20.998Z,9.30
2018-09-28T20:44:15.685Z,9.30
2018-09-28T20:49:10.349Z,9.20
2018-09-28T20:54:05.811Z,9.20
2018-09-28T20:59:00.642Z,9.20
2018-09-28T21:03:55.170Z,9.10
2018-09-28T21:08:51.891Z,9.00
2018-09-28T21:13:47.939Z,8.90
2018-09-28T21:18:42.636Z,8.80
2018-09-28T21:23:37.422Z,8.70
2018-09-28T21:28:32.302Z,8.70
2018-09-28T21:33:26.985Z,8.60
2018-09-28T21:38:22.105Z,8.50
2018-09-28T21:43:17.252Z,8.50
2018-09-28T21:48:14.213Z,8.50
2018-09-28T21:53:09.071Z,8.40
2018-09-28T21:58:03.758Z,8.30
2018-09-28T22:02:59.026Z,8.30
2018-09-28T22:07:54.017Z,8.20
2018-09-28T22:12:49.050Z,8.10
2018-09-28T22:17:43.510Z,8.10
2018-09-28T22:22:38.159Z,8.00
2018-09-28T22:27:32.931Z,7.90
2018-09-28T22:32:27.599Z,7.80
2018-09-28T22:37:22.103Z,7.80
2018-09-28T22:42:16.720Z,7.70
2018-09-28T22:47:11.794Z,7.60
2018-09-28T22:52:08.612Z,7.60
2018-09-28T22:57:03.727Z,7.50
2018-09-28T23:01:58.249Z,7.50
2018-09-28T23:06:52.732Z,7.50
2018-09-28T23:11:47.248Z,7.50
2018-09-28T23:16:41.908Z,7.40
2018-09-28T23:21:36.622Z,7.40
2018-09-28T23:26:31.300Z,7.30
2018-09-28T23:31:25.784Z,7.20
2018-09-28T23:36:20.368Z,7.10
2018-09-28T23:41:14.831Z,7.00
2018-09-28T23:46:09.422Z,6.90
2018-09-28T23:51:04.114Z,6.90
2018-09-28T23:55:58.564Z,6.80
